map of BOD home
BOD - Airport
Location
City:  Bordeaux, Aquitaine, France
Name:Mérignac
ICAO:LFBD
IATA:BOD

Details
Type:Airport (Aerodrome, Airfield)
Use:Public/Civil, International (customs port of entry)
Latitude:44°49'43"N (44.828611)
Longitude:0°42'55"W (-0.715277)
Elevation:166 ft (51 m)
Variation:0.01°E (WMM2015 magnetic declination)
0.13° annual change
Runways:2
Longest:10171 × 148 ft (3100 × 45 m), paved

Time
Time Zone:UTC+1 (DST+2)
Local Time:

Weather
METAR:LFBD 182330Z AUTO 31003KT CAVOK 21/18 Q1016 NOSIG
TAF:LFBD 182300Z 1900/2006 VRB03KT CAVOK TX33/1915Z TN19/1903Z PROB30
TEMPO 1920/1923 SCT060TCU

Related Locations
Nearby:
Farthest:CHT: 12217 mi / 19661 km
Waitangi [Tuuta], CIT, NZ

Find:

   beyond  
but within

Other Information
Maps:
NOTAMs:
Links:
Sources:

  
  • flag of France
  • flag of Aquitaine
  • flag of Bordeaux
  

Sectional Chart

Flight Planning
at skyvector.com

Satellite Image

Google Maps Satellite view

 

Copyright © 2004-2018 Karl L. Swartz. All rights reserved.
The Great Circle Mapper name and logo are trademarks of the Great Circle Mapper.
All other trademarks mentioned herein belong to their respective owners.
Please see credits for attibutions and further copyright information.

  Follow gcmap on Facebook Follow gcmap on Twitter Follow gcmap on Google+ GCmap on LinkedIn

hCard Microformat

Geo Microformat